createdAt,value
2022-09-23T00:01:22.419Z,11.86
2022-09-23T00:03:50.445Z,11.83
2022-09-23T00:06:24.012Z,11.83
2022-09-23T00:08:52.451Z,11.79
2022-09-23T00:11:26.463Z,11.78
2022-09-23T00:13:58.735Z,11.76
2022-09-23T00:16:48.214Z,11.76
2022-09-23T00:19:16.290Z,11.74
2022-09-23T00:21:43.836Z,11.76
2022-09-23T00:24:11.366Z,11.76
2022-09-23T00:26:39.098Z,11.77
2022-09-23T00:29:06.844Z,11.69
2022-09-23T00:31:34.279Z,11.62
2022-09-23T00:34:02.462Z,11.55
2022-09-23T00:36:32.205Z,11.55
2022-09-23T00:39:00.060Z,11.49
2022-09-23T00:41:27.892Z,11.47
2022-09-23T00:43:59.283Z,11.48
2022-09-23T00:46:40.035Z,11.46
2022-09-23T00:49:29.326Z,11.44
2022-09-23T00:52:10.110Z,11.46
2022-09-23T00:54:38.433Z,11.51
2022-09-23T00:57:06.966Z,11.52
2022-09-23T00:59:34.562Z,11.52
2022-09-23T01:02:03.907Z,11.49
2022-09-23T01:04:32.083Z,11.42
2022-09-23T01:06:59.593Z,11.38
2022-09-23T01:09:27.562Z,11.36
2022-09-23T01:12:10.899Z,11.30
2022-09-23T01:14:57.363Z,11.27
2022-09-23T01:18:21.259Z,11.15
2022-09-23T01:21:29.860Z,11.09
2022-09-23T01:24:34.333Z,11.12
2022-09-23T01:27:13.103Z,11.12
2022-09-23T01:30:05.780Z,11.13
2022-09-23T01:32:47.409Z,11.07
2022-09-23T01:35:42.963Z,11.03
2022-09-23T01:38:34.855Z,10.98
2022-09-23T01:41:31.554Z,10.86
2022-09-23T01:44:29.275Z,10.81
2022-09-23T01:47:38.127Z,10.82
2022-09-23T01:50:47.025Z,10.79
2022-09-23T01:53:39.568Z,10.76
2022-09-23T01:56:35.572Z,10.77
2022-09-23T01:59:17.850Z,10.72
2022-09-23T02:02:15.358Z,10.73
2022-09-23T02:05:07.991Z,10.77
2022-09-23T02:08:14.952Z,10.73
2022-09-23T02:10:52.154Z,10.77
2022-09-23T02:13:37.022Z,10.83
2022-09-23T02:16:18.441Z,10.89
2022-09-23T02:19:15.574Z,10.90
2022-09-23T02:22:18.956Z,10.91
2022-09-23T02:24:48.454Z,10.96
2022-09-23T02:28:28.247Z,11.06
2022-09-23T02:31:25.776Z,11.03
2022-09-23T02:34:04.185Z,11.00
2022-09-23T02:37:04.927Z,11.00
2022-09-23T02:39:50.892Z,11.06
2022-09-23T02:42:32.603Z,11.09
2022-09-23T02:45:00.158Z,11.12
2022-09-23T02:47:33.812Z,11.13
2022-09-23T02:50:02.143Z,11.16
2022-09-23T02:52:29.956Z,11.17
2022-09-23T02:54:58.024Z,11.19
2022-09-23T02:57:25.621Z,11.17
2022-09-23T02:59:53.550Z,11.16
2022-09-23T03:03:00.917Z,11.16
2022-09-23T03:05:32.884Z,11.15
2022-09-23T03:08:30.086Z,11.13
2022-09-23T03:11:11.303Z,11.13
2022-09-23T03:13:56.085Z,11.06
2022-09-23T03:17:01.506Z,11.02
2022-09-23T03:19:51.866Z,10.98
2022-09-23T03:22:35.454Z,10.99
2022-09-23T03:25:10.923Z,10.99
2022-09-23T03:27:42.465Z,10.98
2022-09-23T03:30:11.714Z,10.98
2022-09-23T03:32:44.625Z,10.95
2022-09-23T03:35:13.926Z,10.97
2022-09-23T03:37:53.466Z,10.97
2022-09-23T03:40:22.541Z,10.93
2022-09-23T03:42:51.274Z,10.92
2022-09-23T03:45:27.258Z,10.94
2022-09-23T03:47:55.099Z,10.94
2022-09-23T03:50:22.770Z,10.95
2022-09-23T03:52:50.627Z,10.92
2022-09-23T03:55:20.414Z,10.91
2022-09-23T03:57:48.697Z,10.92
2022-09-23T04:00:16.677Z,10.95
2022-09-23T04:02:44.878Z,10.96
2022-09-23T04:05:15.054Z,10.99
2022-09-23T04:07:42.730Z,10.99
2022-09-23T04:10:10.930Z,10.99
2022-09-23T04:12:38.840Z,11.00
2022-09-23T04:15:07.402Z,10.98
2022-09-23T04:17:35.259Z,10.99
2022-09-23T04:20:03.730Z,11.00
2022-09-23T04:22:33.499Z,10.97
2022-09-23T04:25:01.886Z,10.91
2022-09-23T04:27:31.294Z,10.88
2022-09-23T04:30:02.329Z,10.88
2022-09-23T04:32:30.092Z,10.90
2022-09-23T04:34:57.587Z,10.91
2022-09-23T04:37:25.438Z,10.93
2022-09-23T04:39:53.457Z,10.95
2022-09-23T04:42:20.980Z,10.95
2022-09-23T04:44:48.806Z,10.93
2022-09-23T04:47:16.394Z,10.92
2022-09-23T04:49:43.894Z,10.92
2022-09-23T04:52:12.101Z,10.91
2022-09-23T04:54:41.644Z,10.89
2022-09-23T04:57:11.183Z,10.89
2022-09-23T04:59:39.082Z,10.88
2022-09-23T05:02:06.591Z,10.90
2022-09-23T05:04:34.241Z,10.90
2022-09-23T05:07:03.416Z,10.90
2022-09-23T05:09:31.195Z,10.91
2022-09-23T05:11:58.899Z,10.89
2022-09-23T05:14:26.848Z,10.89
2022-09-23T05:16:54.394Z,10.92
2022-09-23T05:19:22.278Z,10.92
2022-09-23T05:21:50.018Z,10.97
2022-09-23T05:24:17.818Z,11.03
2022-09-23T05:26:45.569Z,11.07
2022-09-23T05:29:13.404Z,11.09
2022-09-23T05:31:41.256Z,11.11
2022-09-23T05:34:09.014Z,11.11
2022-09-23T05:36:38.919Z,11.05
2022-09-23T05:39:08.562Z,11.00
2022-09-23T05:41:36.791Z,10.96
2022-09-23T05:44:05.043Z,10.88
2022-09-23T05:46:33.683Z,10.83
2022-09-23T05:49:03.552Z,10.87
2022-09-23T05:51:33.917Z,10.82
2022-09-23T05:54:04.193Z,10.81
2022-09-23T05:56:33.808Z,10.82
2022-09-23T05:59:03.534Z,10.93
2022-09-23T06:01:35.364Z,10.91
2022-09-23T06:04:06.145Z,10.96
2022-09-23T06:06:38.145Z,11.00
2022-09-23T06:09:10.001Z,10.99
2022-09-23T06:11:37.728Z,11.04
2022-09-23T06:14:05.457Z,11.10
2022-09-23T06:16:35.790Z,11.17
2022-09-23T06:19:07.117Z,11.22
2022-09-23T06:21:38.549Z,11.26
2022-09-23T06:24:10.015Z,11.28
2022-09-23T06:26:38.802Z,11.33
2022-09-23T06:29:11.956Z,11.36
2022-09-23T06:31:43.724Z,11.37
2022-09-23T06:34:14.596Z,11.44
2022-09-23T06:36:46.195Z,11.51
2022-09-23T06:39:15.520Z,11.49
2022-09-23T06:41:45.227Z,11.31
2022-09-23T06:44:15.212Z,11.12
2022-09-23T06:46:43.354Z,11.06
2022-09-23T06:49:12.221Z,11.01
2022-09-23T06:51:40.269Z,10.99
2022-09-23T06:54:08.357Z,10.98
2022-09-23T06:56:39.069Z,11.08
2022-09-23T06:59:10.666Z,11.14
2022-09-23T07:01:39.074Z,11.28
2022-09-23T07:04:07.832Z,11.34
2022-09-23T07:06:37.196Z,11.49
2022-09-23T07:09:07.365Z,11.60
2022-09-23T07:11:35.178Z,11.66
2022-09-23T07:14:03.365Z,11.66
2022-09-23T07:16:32.904Z,11.75
2022-09-23T07:19:00.435Z,11.89
2022-09-23T07:21:28.007Z,11.94
2022-09-23T07:23:58.257Z,12.05
2022-09-23T07:26:26.658Z,12.19
2022-09-23T07:28:56.704Z,12.24
2022-09-23T07:31:37.241Z,12.37
2022-09-23T07:34:10.347Z,12.49
2022-09-23T07:36:41.080Z,12.62
2022-09-23T07:39:12.408Z,12.66
2022-09-23T07:41:44.738Z,12.68
2022-09-23T07:44:12.560Z,12.66
2022-09-23T07:46:40.351Z,12.63
2022-09-23T07:49:08.854Z,12.70
2022-09-23T07:51:39.108Z,12.73
2022-09-23T07:54:11.214Z,12.80
2022-09-23T07:56:40.141Z,12.87
2022-09-23T07:59:11.581Z,12.94
2022-09-23T08:01:44.270Z,13.01
2022-09-23T08:04:22.153Z,13.10
2022-09-23T08:06:54.217Z,13.18
2022-09-23T08:09:27.070Z,13.31
2022-09-23T08:11:55.300Z,13.42
2022-09-23T08:14:22.857Z,13.52
2022-09-23T08:16:51.904Z,13.57
2022-09-23T08:19:20.234Z,13.59
2022-09-23T08:21:47.962Z,13.62
2022-09-23T08:24:19.162Z,13.61
2022-09-23T08:26:48.199Z,13.66
2022-09-23T08:29:18.996Z,13.74
2022-09-23T08:31:47.193Z,13.65
2022-09-23T08:34:15.627Z,13.56
2022-09-23T08:36:43.611Z,13.57
2022-09-23T08:39:15.880Z,13.64
2022-09-23T08:42:08.260Z,13.79
2022-09-23T08:44:52.960Z,13.90
2022-09-23T08:47:47.180Z,14.02
2022-09-23T08:50:31.976Z,14.13
2022-09-23T08:53:14.166Z,14.20
2022-09-23T08:55:50.966Z,14.28
2022-09-23T08:58:40.591Z,14.38
2022-09-23T09:01:19.444Z,14.50
2022-09-23T09:03:57.016Z,14.58
2022-09-23T09:06:53.669Z,14.54
2022-09-23T09:09:33.895Z,14.59
2022-09-23T09:12:20.447Z,14.61
2022-09-23T09:15:27.411Z,14.64
2022-09-23T09:18:10.242Z,14.72
2022-09-23T09:20:57.406Z,14.78
2022-09-23T09:23:50.511Z,14.80
2022-09-23T09:26:35.333Z,14.84
2022-09-23T09:29:33.752Z,14.80
2022-09-23T09:32:22.968Z,14.96
2022-09-23T09:34:58.585Z,15.03
2022-09-23T09:37:37.565Z,15.16
2022-09-23T09:40:06.586Z,15.31
2022-09-23T09:42:40.438Z,15.40
2022-09-23T09:45:24.255Z,15.46
2022-09-23T09:48:20.843Z,15.50
2022-09-23T09:50:53.928Z,15.58
2022-09-23T09:53:35.908Z,15.69
2022-09-23T09:56:08.815Z,15.82
2022-09-23T09:58:48.616Z,15.82
2022-09-23T10:01:32.765Z,15.66
2022-09-23T10:04:33.969Z,15.46
2022-09-23T10:07:16.716Z,15.45
2022-09-23T10:09:51.397Z,15.49
2022-09-23T10:12:21.515Z,15.53
2022-09-23T10:14:52.573Z,15.54
2022-09-23T10:17:31.651Z,15.56
2022-09-23T10:20:09.151Z,15.65
2022-09-23T10:22:42.891Z,15.68
2022-09-23T10:25:21.211Z,15.88
2022-09-23T10:27:48.748Z,15.91
2022-09-23T10:30:25.909Z,16.01
2022-09-23T10:32:56.931Z,16.17
2022-09-23T10:35:26.654Z,16.22
2022-09-23T10:37:57.732Z,16.35
2022-09-23T10:41:02.295Z,16.36
2022-09-23T10:44:16.692Z,16.47
2022-09-23T10:47:14.593Z,16.65
2022-09-23T10:50:14.579Z,16.70
2022-09-23T10:53:05.092Z,16.78
2022-09-23T10:56:05.161Z,16.97
2022-09-23T10:59:14.755Z,17.15
2022-09-23T11:02:00.762Z,17.36
2022-09-23T11:05:03.533Z,17.56
2022-09-23T11:08:37.338Z,17.65
2022-09-23T11:11:40.701Z,17.62
2022-09-23T11:14:19.647Z,17.67
2022-09-23T11:17:14.854Z,17.78
2022-09-23T11:19:56.027Z,17.93
2022-09-23T11:22:37.453Z,18.12
2022-09-23T11:25:30.335Z,18.17
2022-09-23T11:28:23.574Z,18.21
2022-09-23T11:31:19.553Z,18.30
2022-09-23T11:34:08.219Z,18.45
2022-09-23T11:36:50.707Z,18.55
2022-09-23T11:39:42.743Z,18.66
2022-09-23T11:42:27.204Z,18.67
2022-09-23T11:45:08.320Z,18.70
2022-09-23T11:47:48.902Z,18.73
2022-09-23T11:50:32.842Z,18.73
2022-09-23T11:53:19.438Z,18.82
2022-09-23T11:56:03.913Z,18.93
2022-09-23T11:59:03.016Z,18.90
2022-09-23T12:01:45.693Z,18.87
2022-09-23T12:04:56.453Z,18.80
2022-09-23T12:07:48.818Z,18.67
2022-09-23T12:10:17.473Z,18.65
2022-09-23T12:12:49.433Z,18.72
2022-09-23T12:15:52.658Z,18.71
2022-09-23T12:18:51.144Z,18.72
2022-09-23T12:21:50.945Z,18.65
2022-09-23T12:24:41.181Z,18.57
2022-09-23T12:27:36.872Z,18.46
2022-09-23T12:30:18.497Z,18.42
2022-09-23T12:32:49.499Z,18.52
2022-09-23T12:35:41.302Z,18.78
2022-09-23T12:38:49.640Z,19.09
2022-09-23T12:41:37.724Z,19.49
2022-09-23T12:44:11.158Z,19.80
2022-09-23T12:46:46.108Z,20.04
2022-09-23T12:49:28.952Z,20.16
2022-09-23T12:52:18.622Z,20.17
2022-09-23T12:54:50.499Z,20.18
2022-09-23T12:57:36.756Z,20.37
2022-09-23T13:00:12.925Z,20.60
2022-09-23T13:03:22.312Z,20.60
2022-09-23T13:06:19.322Z,20.45
2022-09-23T13:08:49.506Z,20.42
2022-09-23T13:11:27.792Z,20.40
2022-09-23T13:14:00.695Z,20.30
2022-09-23T13:16:37.105Z,20.24
2022-09-23T13:19:27.790Z,20.14
2022-09-23T13:22:07.712Z,20.06
2022-09-23T13:24:43.058Z,19.94
2022-09-23T13:27:23.070Z,19.82
2022-09-23T13:30:27.101Z,19.66
2022-09-23T13:33:14.323Z,19.53
2022-09-23T13:35:53.157Z,19.40
2022-09-23T13:38:28.201Z,19.34
2022-09-23T13:41:18.115Z,19.25
2022-09-23T13:43:59.276Z,19.35
2022-09-23T13:46:35.662Z,19.66
2022-09-23T13:49:03.786Z,19.71
2022-09-23T13:51:35.177Z,19.66
2022-09-23T13:54:05.217Z,19.62
2022-09-23T13:56:35.391Z,19.58
2022-09-23T13:59:25.918Z,19.48
2022-09-23T14:02:07.068Z,19.42
2022-09-23T14:04:34.745Z,19.43
2022-09-23T14:07:04.093Z,19.71
2022-09-23T14:09:34.440Z,20.40
2022-09-23T14:12:04.478Z,21.03
2022-09-23T14:14:37.256Z,21.38
2022-09-23T14:17:07.575Z,22.04
2022-09-23T14:19:37.105Z,22.42
2022-09-23T14:22:09.251Z,22.80
2022-09-23T14:24:41.127Z,22.92
2022-09-23T14:27:22.534Z,23.25
2022-09-23T14:29:50.980Z,23.48
2022-09-23T14:32:24.274Z,23.73
2022-09-23T14:35:04.584Z,23.99
2022-09-23T14:37:55.515Z,23.87
2022-09-23T14:40:50.780Z,23.57
2022-09-23T14:43:26.095Z,23.31
2022-09-23T14:45:59.014Z,23.29
2022-09-23T14:48:34.616Z,23.44
2022-09-23T14:51:08.669Z,23.61
2022-09-23T14:53:48.751Z,23.65
2022-09-23T14:56:22.598Z,23.47
2022-09-23T14:58:57.190Z,23.23
2022-09-23T15:01:31.236Z,23.12
2022-09-23T15:04:15.282Z,23.19
2022-09-23T15:07:02.825Z,23.15
2022-09-23T15:09:40.869Z,23.30
2022-09-23T15:12:21.863Z,23.42
2022-09-23T15:14:55.263Z,23.60
2022-09-23T15:17:38.423Z,23.56
2022-09-23T15:20:28.079Z,23.45
2022-09-23T15:22:56.566Z,23.28
2022-09-23T15:25:40.128Z,23.05
2022-09-23T15:28:10.876Z,23.03
2022-09-23T15:30:39.539Z,22.85
2022-09-23T15:33:09.537Z,22.60
2022-09-23T15:35:40.804Z,22.37
2022-09-23T15:38:09.816Z,22.10
2022-09-23T15:40:39.547Z,21.99
2022-09-23T15:43:21.169Z,22.02
2022-09-23T15:45:53.463Z,22.23
2022-09-23T15:48:43.697Z,22.41
2022-09-23T15:51:15.583Z,22.72
2022-09-23T15:53:43.366Z,22.98
2022-09-23T15:56:10.820Z,23.23
2022-09-23T15:58:38.729Z,23.39
2022-09-23T16:01:06.559Z,23.58
2022-09-23T16:03:34.232Z,23.66
2022-09-23T16:06:03.268Z,23.51
2022-09-23T16:08:33.063Z,23.19
2022-09-23T16:11:01.298Z,22.45
2022-09-23T16:13:29.155Z,21.44
2022-09-23T16:15:56.709Z,20.30
2022-09-23T16:18:24.464Z,19.25
2022-09-23T16:20:52.293Z,18.46
2022-09-23T16:23:35.882Z,17.82
2022-09-23T16:26:29.625Z,17.23
2022-09-23T16:28:58.979Z,16.89
2022-09-23T16:31:31.430Z,16.55
2022-09-23T16:34:02.553Z,16.25
2022-09-23T16:36:41.182Z,16.03
2022-09-23T16:39:12.789Z,15.83
2022-09-23T16:41:42.881Z,15.63
2022-09-23T16:44:12.506Z,15.49
2022-09-23T16:46:43.007Z,15.41
2022-09-23T16:49:14.094Z,15.16
2022-09-23T16:51:42.328Z,15.07
2022-09-23T16:54:13.572Z,15.00
2022-09-23T16:56:44.460Z,14.84
2022-09-23T16:59:16.757Z,14.98
2022-09-23T17:02:03.977Z,15.02
2022-09-23T17:04:31.868Z,14.95
2022-09-23T17:06:59.450Z,14.88
2022-09-23T17:09:30.225Z,14.78
2022-09-23T17:12:23.328Z,14.78
2022-09-23T17:14:52.518Z,14.76
2022-09-23T17:17:20.162Z,14.84
2022-09-23T17:19:47.722Z,14.86
2022-09-23T17:22:15.202Z,14.84
2022-09-23T17:24:43.196Z,14.86
2022-09-23T17:27:11.002Z,14.84
2022-09-23T17:29:38.567Z,14.86
2022-09-23T17:32:06.364Z,14.86
2022-09-23T17:34:34.958Z,14.83
2022-09-23T17:37:02.647Z,14.78
2022-09-23T17:39:31.736Z,14.69
2022-09-23T17:41:59.310Z,14.62
2022-09-23T17:44:27.022Z,14.50
2022-09-23T17:46:56.943Z,14.32
2022-09-23T17:49:24.701Z,14.10
2022-09-23T17:51:52.312Z,13.97
2022-09-23T17:54:20.359Z,13.88
2022-09-23T17:56:47.854Z,13.82
2022-09-23T17:59:15.494Z,13.84
2022-09-23T18:01:43.327Z,13.93
2022-09-23T18:04:12.761Z,14.05
2022-09-23T18:06:40.401Z,14.11
2022-09-23T18:09:09.401Z,14.13
2022-09-23T18:11:43.585Z,14.12
2022-09-23T18:14:26.934Z,14.09
2022-09-23T18:16:55.044Z,14.09
2022-09-23T18:19:24.717Z,14.11
2022-09-23T18:21:56.404Z,14.10
2022-09-23T18:24:33.353Z,14.07
2022-09-23T18:27:01.993Z,14.05
2022-09-23T18:29:29.867Z,14.07
2022-09-23T18:31:59.306Z,14.09
2022-09-23T18:34:27.426Z,14.06
2022-09-23T18:36:56.245Z,14.01
2022-09-23T18:39:23.823Z,13.95
2022-09-23T18:41:51.324Z,13.89
2022-09-23T18:44:20.155Z,13.84
2022-09-23T18:46:47.736Z,13.77
2022-09-23T18:49:34.148Z,13.73
2022-09-23T18:52:02.515Z,13.69
2022-09-23T18:54:30.443Z,13.63
2022-09-23T18:56:59.322Z,13.58
2022-09-23T18:59:33.568Z,13.54
2022-09-23T19:02:01.527Z,13.49
2022-09-23T19:04:29.635Z,13.42
2022-09-23T19:06:58.010Z,13.38
2022-09-23T19:09:26.794Z,13.35
2022-09-23T19:11:54.663Z,13.32
2022-09-23T19:14:22.391Z,13.29
2022-09-23T19:16:51.003Z,13.28
2022-09-23T19:19:18.922Z,13.25
2022-09-23T19:21:49.397Z,13.23
2022-09-23T19:24:20.121Z,13.21
2022-09-23T19:26:50.359Z,13.18
2022-09-23T19:29:19.860Z,13.12
2022-09-23T19:31:48.503Z,13.09
2022-09-23T19:34:19.755Z,13.02
2022-09-23T19:36:48.059Z,12.96
2022-09-23T19:39:28.340Z,12.94
2022-09-23T19:41:56.276Z,12.92
2022-09-23T19:44:25.424Z,12.89
2022-09-23T19:46:56.763Z,12.87
2022-09-23T19:49:26.203Z,12.85
2022-09-23T19:51:56.095Z,12.83
2022-09-23T19:54:26.723Z,12.82
2022-09-23T19:56:54.988Z,12.79
2022-09-23T19:59:22.524Z,12.79
2022-09-23T20:01:50.208Z,12.77
2022-09-23T20:04:18.124Z,12.75
2022-09-23T20:06:46.401Z,12.75
2022-09-23T20:09:14.443Z,12.72
2022-09-23T20:11:43.139Z,12.72
2022-09-23T20:14:11.951Z,12.70
2022-09-23T20:16:40.600Z,12.68
2022-09-23T20:19:09.932Z,12.65
2022-09-23T20:21:37.675Z,12.65
2022-09-23T20:24:06.994Z,12.63
2022-09-23T20:26:53.905Z,12.62
2022-09-23T20:29:21.852Z,12.61
2022-09-23T20:31:49.694Z,12.62
2022-09-23T20:34:18.793Z,12.62
2022-09-23T20:36:46.338Z,12.61
2022-09-23T20:39:14.748Z,12.60
2022-09-23T20:41:42.577Z,12.60
2022-09-23T20:44:12.577Z,12.60
2022-09-23T20:46:48.648Z,12.60
2022-09-23T20:49:23.405Z,12.61
2022-09-23T20:51:54.385Z,12.59
2022-09-23T20:54:29.805Z,12.60
2022-09-23T21:00:21.913Z,12.60
2022-09-23T21:02:54.897Z,12.59
2022-09-23T21:05:52.154Z,12.61
2022-09-23T21:08:39.909Z,12.60
2022-09-23T21:11:29.172Z,12.58
2022-09-23T21:14:07.543Z,12.54
2022-09-23T21:17:04.127Z,12.56
2022-09-23T21:19:41.661Z,12.53
2022-09-23T21:22:16.966Z,12.51
2022-09-23T21:25:26.238Z,12.49
2022-09-23T21:28:21.019Z,12.47
2022-09-23T21:31:33.915Z,12.46
2022-09-23T21:34:16.744Z,12.42
2022-09-23T21:36:47.966Z,12.42
2022-09-23T21:39:17.214Z,12.42
2022-09-23T21:41:54.678Z,12.44
2022-09-23T21:44:32.993Z,12.44
2022-09-23T21:47:05.858Z,12.46
2022-09-23T21:50:29.745Z,12.47
2022-09-23T21:53:02.838Z,12.44
2022-09-23T21:56:28.862Z,12.47
2022-09-23T21:59:01.410Z,12.45
2022-09-23T22:01:39.469Z,12.46
2022-09-23T22:04:19.421Z,12.44
2022-09-23T22:06:49.467Z,12.45
2022-09-23T22:09:25.373Z,12.45
2022-09-23T22:12:07.882Z,12.45
2022-09-23T22:14:36.428Z,12.49
2022-09-23T22:17:06.487Z,12.48
2022-09-23T22:19:40.209Z,12.47
2022-09-23T22:22:13.244Z,12.46
2022-09-23T22:24:46.450Z,12.44
2022-09-23T22:27:19.172Z,12.42
2022-09-23T22:30:05.528Z,12.42
2022-09-23T22:32:44.127Z,12.39
2022-09-23T22:35:17.934Z,12.37
2022-09-23T22:37:47.412Z,12.39
2022-09-23T22:40:16.015Z,12.43
2022-09-23T22:42:44.382Z,12.50
2022-09-23T22:45:13.489Z,12.59
2022-09-23T22:47:45.513Z,12.67
2022-09-23T22:50:15.359Z,12.76
2022-09-23T22:52:43.365Z,12.84
2022-09-23T22:55:12.125Z,12.94
2022-09-23T22:57:39.917Z,13.02
2022-09-23T23:00:09.409Z,13.08
2022-09-23T23:02:37.006Z,13.15
2022-09-23T23:05:05.244Z,13.22
2022-09-23T23:07:36.236Z,13.24
2022-09-23T23:10:04.752Z,13.24
2022-09-23T23:12:33.624Z,13.22
2022-09-23T23:15:01.089Z,13.13
2022-09-23T23:17:29.879Z,13.03
2022-09-23T23:19:58.036Z,12.95
2022-09-23T23:22:28.547Z,12.88
2022-09-23T23:24:56.172Z,12.79
2022-09-23T23:27:23.950Z,12.73
2022-09-23T23:29:51.512Z,12.70
2022-09-23T23:32:18.971Z,12.70
2022-09-23T23:34:46.972Z,12.77
2022-09-23T23:37:17.639Z,12.84
2022-09-23T23:39:48.005Z,12.94
2022-09-23T23:42:15.619Z,13.02
2022-09-23T23:44:43.238Z,13.06
2022-09-23T23:47:11.129Z,13.09
2022-09-23T23:49:38.871Z,13.15
2022-09-23T23:52:06.437Z,13.15
2022-09-23T23:54:34.253Z,13.22
2022-09-23T23:57:01.762Z,13.23
2022-09-23T23:59:29.235Z,13.26
